createdAt,value
2019-02-11T00:02:29.731Z,93.67
2019-02-11T00:06:32.287Z,93.65
2019-02-11T00:10:34.820Z,93.67
2019-02-11T00:14:37.361Z,93.68
2019-02-11T00:18:39.776Z,93.70
2019-02-11T00:22:42.300Z,93.72
2019-02-11T00:26:49.028Z,93.68
2019-02-11T00:30:51.528Z,93.73
2019-02-11T00:34:53.926Z,93.75
2019-02-11T00:38:56.419Z,93.70
2019-02-11T00:42:58.836Z,93.72
2019-02-11T00:47:01.535Z,93.78
2019-02-11T00:51:04.104Z,93.76
2019-02-11T00:55:07.235Z,93.77
2019-02-11T00:59:09.799Z,93.81
2019-02-11T01:03:12.296Z,93.78
2019-02-11T01:07:14.704Z,93.81
2019-02-11T01:11:17.197Z,93.79
2019-02-11T01:15:20.910Z,93.79
2019-02-11T01:19:23.420Z,93.79
2019-02-11T01:23:25.939Z,93.80
2019-02-11T01:27:28.409Z,93.76
2019-02-11T01:31:30.862Z,93.72
2019-02-11T01:35:34.963Z,93.69
2019-02-11T01:39:37.582Z,93.67
2019-02-11T01:43:40.295Z,93.68
2019-02-11T01:47:43.091Z,93.68
2019-02-11T01:51:45.809Z,93.70
2019-02-11T01:55:48.254Z,93.75
2019-02-11T01:59:51.065Z,93.75
2019-02-11T02:03:53.512Z,93.76
2019-02-11T02:07:56.038Z,93.77
2019-02-11T02:11:58.410Z,93.81
2019-02-11T02:16:00.998Z,93.80
2019-02-11T02:20:03.467Z,93.82
2019-02-11T02:24:05.980Z,93.81
2019-02-11T02:28:08.523Z,93.80
2019-02-11T02:32:11.097Z,93.78
2019-02-11T02:36:13.635Z,93.82
2019-02-11T02:40:16.143Z,93.81
2019-02-11T02:44:18.567Z,93.81
2019-02-11T02:48:21.111Z,93.80
2019-02-11T02:52:23.522Z,93.81
2019-02-11T02:56:25.990Z,93.83
2019-02-11T03:00:28.799Z,93.83
2019-02-11T03:04:31.337Z,93.84
2019-02-11T03:08:33.754Z,93.81
2019-02-11T03:12:36.293Z,93.82
2019-02-11T03:16:38.730Z,93.85
2019-02-11T03:20:41.306Z,93.83
2019-02-11T03:24:43.856Z,93.80
2019-02-11T03:28:46.351Z,93.79
2019-02-11T03:32:48.764Z,93.81
2019-02-11T03:36:51.284Z,93.79
2019-02-11T03:40:53.844Z,93.79
2019-02-11T03:44:56.443Z,93.80
2019-02-11T03:48:58.881Z,93.79
2019-02-11T03:53:01.483Z,93.77
2019-02-11T03:57:04.079Z,93.80
2019-02-11T04:01:08.589Z,93.79
2019-02-11T04:05:11.212Z,93.76
2019-02-11T04:09:13.738Z,93.77
2019-02-11T04:13:16.404Z,93.79
2019-02-11T04:17:18.947Z,93.80
2019-02-11T04:21:21.378Z,93.81
2019-02-11T04:25:25.545Z,93.80
2019-02-11T04:29:27.981Z,93.85
2019-02-11T04:33:30.698Z,93.82
2019-02-11T04:37:33.128Z,93.81
2019-02-11T04:41:35.805Z,93.83
2019-02-11T04:45:38.360Z,93.84
2019-02-11T04:49:40.888Z,93.85
2019-02-11T04:53:43.300Z,93.86
2019-02-11T04:57:45.800Z,93.85
2019-02-11T05:01:48.698Z,93.85
2019-02-11T05:05:51.219Z,93.85
2019-02-11T05:09:53.653Z,93.88
2019-02-11T05:13:56.242Z,93.89
2019-02-11T05:17:58.783Z,93.89
2019-02-11T05:22:01.255Z,93.89
2019-02-11T05:26:03.787Z,93.90
2019-02-11T05:30:06.729Z,93.90
2019-02-11T05:34:09.197Z,93.87
2019-02-11T05:38:11.820Z,93.88
2019-02-11T05:42:14.301Z,93.85
2019-02-11T05:46:16.824Z,93.81
2019-02-11T05:50:19.244Z,93.81
2019-02-11T05:54:21.734Z,93.79
2019-02-11T05:58:24.226Z,93.78
2019-02-11T06:02:26.807Z,93.78
2019-02-11T06:06:30.708Z,93.78
2019-02-11T06:10:33.358Z,93.80
2019-02-11T06:14:35.750Z,93.79
2019-02-11T06:18:38.253Z,93.78
2019-02-11T06:22:42.044Z,93.76
2019-02-11T06:26:44.535Z,93.78
2019-02-11T06:30:47.076Z,93.78
2019-02-11T06:34:49.674Z,93.76
2019-02-11T06:38:52.079Z,93.78
2019-02-11T06:42:54.743Z,93.76
2019-02-11T06:46:57.150Z,93.77
2019-02-11T06:50:59.839Z,93.76
2019-02-11T06:55:02.254Z,93.74
2019-02-11T06:59:04.934Z,93.72
2019-02-11T07:03:07.363Z,93.71
2019-02-11T07:07:09.854Z,93.70
2019-02-11T07:11:13.656Z,93.68
2019-02-11T07:15:22.193Z,93.64
2019-02-11T07:19:20.416Z,93.59
2019-02-11T07:23:23.014Z,93.56
2019-02-11T07:27:25.438Z,93.48
2019-02-11T07:31:27.982Z,93.44
2019-02-11T07:35:30.425Z,93.35
2019-02-11T07:39:32.921Z,93.32
2019-02-11T07:43:40.790Z,93.29
2019-02-11T07:47:43.423Z,93.27
2019-02-11T07:51:46.053Z,93.23
2019-02-11T07:55:48.556Z,93.20
2019-02-11T07:59:50.984Z,93.09
2019-02-11T08:03:53.585Z,92.99
2019-02-11T08:07:55.994Z,92.86
2019-02-11T08:12:00.336Z,92.80
2019-02-11T08:16:03.064Z,92.72
2019-02-11T08:20:06.696Z,92.66
2019-02-11T08:24:09.114Z,92.59
2019-02-11T08:28:19.216Z,92.50
2019-02-11T08:32:15.864Z,92.39
2019-02-11T08:36:18.510Z,92.42
2019-02-11T08:40:20.983Z,92.30
2019-02-11T08:44:23.700Z,92.26
2019-02-11T08:48:26.211Z,92.33
2019-02-11T08:52:28.788Z,92.37
2019-02-11T08:56:31.208Z,92.35
2019-02-11T09:00:33.707Z,92.28
2019-02-11T09:04:36.275Z,92.30
2019-02-11T09:08:38.925Z,92.28
2019-02-11T09:12:41.339Z,92.24
2019-02-11T09:16:43.926Z,92.24
2019-02-11T09:20:46.739Z,92.29
2019-02-11T09:24:49.268Z,92.35
2019-02-11T09:28:51.740Z,92.41
2019-02-11T09:32:54.360Z,92.45
2019-02-11T09:36:56.988Z,92.46
2019-02-11T09:40:59.496Z,92.46
2019-02-11T09:45:06.390Z,92.47
2019-02-11T09:49:08.904Z,92.52
2019-02-11T09:53:11.464Z,92.56
2019-02-11T09:57:13.960Z,92.58
2019-02-11T10:01:16.404Z,92.61
2019-02-11T10:05:18.936Z,92.56
2019-02-11T10:09:21.518Z,92.54
2019-02-11T10:13:24.043Z,92.48
2019-02-11T10:17:29.789Z,92.41
2019-02-11T10:21:31.356Z,92.42
2019-02-11T10:25:35.323Z,92.37
2019-02-11T10:29:38.788Z,92.24
2019-02-11T10:33:42.079Z,92.16
2019-02-11T10:37:45.006Z,92.20
2019-02-11T10:41:49.087Z,92.26
2019-02-11T10:45:51.708Z,92.26
2019-02-11T10:49:54.334Z,92.35
2019-02-11T10:53:57.524Z,92.38
2019-02-11T10:58:00.424Z,92.38
2019-02-11T11:02:03.084Z,92.39
2019-02-11T11:06:05.835Z,92.35
2019-02-11T11:10:12.862Z,92.34
2019-02-11T11:14:16.179Z,92.37
2019-02-11T11:18:18.803Z,92.28
2019-02-11T11:22:21.439Z,92.27
2019-02-11T11:26:24.013Z,92.29
2019-02-11T11:30:27.094Z,92.29
2019-02-11T11:34:30.179Z,92.28
2019-02-11T11:38:32.588Z,92.25
2019-02-11T11:42:35.415Z,92.30
2019-02-11T11:46:46.775Z,92.22
2019-02-11T11:50:43.333Z,92.19
2019-02-11T11:54:47.103Z,92.17
2019-02-11T11:58:50.511Z,92.06
2019-02-11T12:03:04.176Z,91.93
2019-02-11T12:06:58.527Z,91.89
2019-02-11T12:11:01.968Z,91.84
2019-02-11T12:15:05.062Z,91.85
2019-02-11T12:19:07.507Z,91.87
2019-02-11T12:23:10.032Z,91.89
2019-02-11T12:27:12.493Z,91.83
2019-02-11T12:31:15.258Z,91.81
2019-02-11T12:35:17.710Z,91.73
2019-02-11T12:39:20.231Z,91.59
2019-02-11T12:43:23.005Z,91.55
2019-02-11T12:47:25.680Z,91.46
2019-02-11T12:51:28.095Z,91.29
2019-02-11T12:55:30.679Z,91.46
2019-02-11T12:59:33.236Z,91.52
2019-02-11T13:03:36.003Z,91.50
2019-02-11T13:07:38.533Z,91.48
2019-02-11T13:11:42.127Z,91.39
2019-02-11T13:15:59.908Z,91.39
2019-02-11T13:20:06.709Z,91.49
2019-02-11T13:23:53.428Z,91.65
2019-02-11T13:27:56.101Z,91.71
2019-02-11T13:31:58.826Z,91.85
2019-02-11T13:36:01.348Z,91.89
2019-02-11T13:40:04.017Z,91.96
2019-02-11T13:44:11.379Z,92.04
2019-02-11T13:59:27.569Z,92.19
2019-02-11T14:03:30.249Z,92.20
2019-02-11T14:07:32.981Z,92.26
2019-02-11T14:11:35.716Z,92.26
2019-02-11T14:15:38.263Z,92.34
2019-02-11T14:19:40.686Z,92.42
2019-02-11T14:23:43.552Z,92.49
2019-02-11T14:27:46.028Z,92.51
2019-02-11T14:31:48.600Z,92.61
2019-02-11T14:35:51.801Z,92.70
2019-02-11T14:39:54.743Z,92.74
2019-02-11T14:43:57.292Z,92.81
2019-02-11T14:47:59.940Z,92.88
2019-02-11T14:52:04.568Z,92.94
2019-02-11T14:56:07.281Z,92.95
2019-02-11T15:00:15.286Z,93.00
2019-02-11T15:04:17.892Z,93.03
2019-02-11T15:08:20.311Z,93.08
2019-02-11T15:12:23.071Z,93.11
2019-02-11T15:16:25.432Z,93.18
2019-02-11T15:20:28.154Z,93.22
2019-02-11T15:24:31.367Z,93.24
2019-02-11T15:28:36.938Z,93.27
2019-02-11T15:32:39.560Z,93.32
2019-02-11T15:36:42.006Z,93.33
2019-02-11T15:40:44.746Z,93.37
2019-02-11T15:44:47.464Z,93.40
2019-02-11T15:48:49.852Z,93.42
2019-02-11T15:52:52.436Z,93.44
2019-02-11T15:56:54.881Z,93.47
2019-02-11T16:00:57.487Z,93.53
2019-02-11T16:05:02.218Z,93.55
2019-02-11T16:09:05.314Z,93.54
2019-02-11T16:13:08.162Z,93.59
2019-02-11T16:17:10.690Z,93.64
2019-02-11T16:21:13.093Z,93.66
2019-02-11T16:25:16.042Z,93.69
2019-02-11T16:29:18.570Z,93.70
2019-02-11T16:33:21.075Z,93.68
2019-02-11T16:37:23.464Z,93.72
2019-02-11T16:41:26.196Z,93.71
2019-02-11T16:45:28.672Z,93.74
2019-02-11T16:49:31.182Z,93.78
2019-02-11T16:53:33.696Z,93.82
2019-02-11T16:57:36.262Z,93.83
2019-02-11T17:01:38.655Z,93.85
2019-02-11T17:05:41.141Z,93.84
2019-02-11T17:09:43.542Z,93.85
2019-02-11T17:13:46.118Z,93.86
2019-02-11T17:17:48.607Z,93.86
2019-02-11T17:21:51.093Z,93.87
2019-02-11T17:25:53.516Z,93.88
2019-02-11T17:29:55.977Z,93.90
2019-02-11T17:33:59.578Z,93.89
2019-02-11T17:38:03.166Z,93.90
2019-02-11T17:42:05.991Z,93.91
2019-02-11T17:46:08.693Z,93.90
2019-02-11T17:50:11.953Z,93.92
2019-02-11T17:54:14.817Z,93.92
2019-02-11T17:58:17.321Z,93.92
2019-02-11T18:02:19.851Z,93.92
2019-02-11T18:06:22.249Z,93.90
2019-02-11T18:10:24.777Z,93.91
2019-02-11T18:14:27.150Z,93.91
2019-02-11T18:18:29.671Z,93.87
2019-02-11T18:22:32.108Z,93.86
2019-02-11T18:26:34.666Z,93.86
2019-02-11T18:30:37.311Z,93.83
2019-02-11T18:34:40.027Z,93.81
2019-02-11T18:38:42.412Z,93.80
2019-02-11T18:42:45.151Z,93.81
2019-02-11T18:46:49.487Z,93.82
2019-02-11T18:50:51.875Z,93.81
2019-02-11T18:54:54.300Z,93.80
2019-02-11T18:58:56.866Z,93.78
2019-02-11T19:02:59.434Z,93.78
2019-02-11T19:07:01.940Z,93.81
2019-02-11T19:11:04.375Z,93.80
2019-02-11T19:15:08.313Z,93.79
2019-02-11T19:19:10.866Z,93.80
2019-02-11T19:23:13.649Z,93.79
2019-02-11T19:27:16.039Z,93.80
2019-02-11T19:31:18.624Z,93.80
2019-02-11T19:35:21.744Z,93.84
2019-02-11T19:39:24.179Z,93.81
2019-02-11T19:43:26.569Z,93.82
2019-02-11T19:47:30.490Z,93.79
2019-02-11T19:51:34.233Z,93.79
2019-02-11T19:55:37.804Z,93.78
2019-02-11T19:59:41.654Z,93.78
2019-02-11T20:03:45.205Z,93.78
2019-02-11T20:07:47.979Z,93.75
2019-02-11T20:11:50.381Z,93.74
2019-02-11T20:15:52.970Z,93.72
2019-02-11T20:20:00.412Z,93.72
2019-02-11T20:23:59.572Z,93.71
2019-02-11T20:28:02.061Z,93.72
2019-02-11T20:32:04.740Z,93.74
2019-02-11T20:36:07.359Z,93.72
2019-02-11T20:40:12.672Z,93.71
2019-02-11T20:44:15.132Z,93.73
2019-02-11T20:48:17.592Z,93.70
2019-02-11T20:52:20.050Z,93.73
2019-02-11T20:56:22.435Z,93.71
2019-02-11T21:00:25.545Z,93.77
2019-02-11T21:04:28.044Z,93.74
2019-02-11T21:08:30.521Z,93.80
2019-02-11T21:12:32.890Z,93.80
2019-02-11T21:16:35.370Z,93.78
2019-02-11T21:20:39.492Z,93.79
2019-02-11T21:24:41.988Z,93.77
2019-02-11T21:28:44.367Z,93.79
2019-02-11T21:32:46.968Z,93.75
2019-02-11T21:36:49.502Z,93.74
2019-02-11T21:40:52.695Z,93.76
2019-02-11T21:44:55.078Z,93.75
2019-02-11T21:48:57.532Z,93.69
2019-02-11T21:52:59.884Z,93.66
2019-02-11T21:57:02.581Z,93.70
2019-02-11T22:01:06.688Z,93.67
2019-02-11T22:05:09.280Z,93.63
2019-02-11T22:09:11.765Z,93.63
2019-02-11T22:13:14.206Z,93.56
2019-02-11T22:17:16.564Z,93.55
2019-02-11T22:21:19.001Z,93.54
2019-02-11T22:25:21.394Z,93.42
2019-02-11T22:29:23.852Z,93.40
2019-02-11T22:33:26.241Z,93.31
2019-02-11T22:37:28.944Z,93.13
2019-02-11T22:41:31.453Z,93.10
2019-02-11T22:45:33.968Z,93.04
2019-02-11T22:49:36.366Z,93.03
2019-02-11T22:53:38.917Z,93.06
2019-02-11T22:57:41.345Z,93.12
2019-02-11T23:01:43.911Z,93.12
2019-02-11T23:05:46.442Z,93.04
2019-02-11T23:09:49.118Z,93.09
2019-02-11T23:13:51.505Z,93.10
2019-02-11T23:17:53.937Z,93.06
2019-02-11T23:21:57.018Z,93.09
2019-02-11T23:25:59.808Z,93.09
2019-02-11T23:30:02.168Z,92.80
2019-02-11T23:34:04.857Z,92.85
2019-02-11T23:38:07.584Z,92.76
2019-02-11T23:42:10.322Z,92.64
2019-02-11T23:46:13.178Z,92.39
2019-02-11T23:50:15.926Z,92.23
2019-02-11T23:54:18.279Z,92.04
2019-02-11T23:58:20.769Z,91.97
